createdAt,value
2023-04-25T00:00:29.134Z,96011.19
2023-04-25T00:02:58.287Z,96009.97
2023-04-25T00:05:26.988Z,96019.44
2023-04-25T00:07:55.609Z,96017.09
2023-04-25T00:10:23.850Z,96009.78
2023-04-25T00:12:52.727Z,96014.97
2023-04-25T00:15:22.231Z,96018.13
2023-04-25T00:17:50.494Z,96014.00
2023-04-25T00:20:18.813Z,96015.38
2023-04-25T00:22:47.373Z,96012.06
2023-04-25T00:25:15.671Z,96012.44
2023-04-25T00:27:43.771Z,96011.72
2023-04-25T00:30:13.197Z,96011.78
2023-04-25T00:32:42.800Z,96012.97
2023-04-25T00:35:11.440Z,96011.22
2023-04-25T00:37:39.688Z,96009.78
2023-04-25T00:40:09.001Z,96010.53
2023-04-25T00:42:38.154Z,96006.00
2023-04-25T00:45:09.352Z,96003.22
2023-04-25T00:47:38.543Z,96002.03
2023-04-25T00:50:10.544Z,95998.16
2023-04-25T00:52:40.681Z,96008.00
2023-04-25T00:55:09.728Z,96004.47
2023-04-25T00:57:38.494Z,95999.97
2023-04-25T01:00:12.009Z,96002.75
2023-04-25T01:02:40.391Z,96005.84
2023-04-25T01:05:10.935Z,96010.31
2023-04-25T01:07:39.378Z,96009.78
2023-04-25T01:10:08.795Z,96005.78
2023-04-25T01:12:37.259Z,95999.34
2023-04-25T01:15:07.552Z,95998.81
2023-04-25T01:17:36.807Z,95990.78
2023-04-25T01:20:06.519Z,95993.00
2023-04-25T01:22:36.405Z,95988.91
2023-04-25T01:25:05.075Z,95991.59
2023-04-25T01:27:33.591Z,95982.91
2023-04-25T01:30:02.571Z,95981.84
2023-04-25T01:32:39.286Z,95989.34
2023-04-25T01:35:10.360Z,95984.88
2023-04-25T01:37:40.091Z,95982.66
2023-04-25T01:40:09.861Z,95986.84
2023-04-25T01:42:39.437Z,95982.03
2023-04-25T01:45:09.832Z,95985.28
2023-04-25T01:47:38.032Z,95986.34
2023-04-25T01:50:09.628Z,95986.47
2023-04-25T01:52:40.483Z,95990.47
2023-04-25T01:55:10.314Z,95986.66
2023-04-25T01:57:41.813Z,95986.63
2023-04-25T02:00:11.379Z,95983.50
2023-04-25T02:02:42.450Z,95984.13
2023-04-25T02:05:22.475Z,95990.47
2023-04-25T02:07:52.080Z,95988.06
2023-04-25T02:10:20.328Z,95992.41
2023-04-25T02:13:06.305Z,95987.91
2023-04-25T02:15:44.116Z,95985.31
2023-04-25T02:18:17.494Z,95983.34
2023-04-25T02:20:46.486Z,95984.75
2023-04-25T02:23:16.836Z,95980.34
2023-04-25T02:25:45.203Z,95982.47
2023-04-25T02:28:13.577Z,95979.97
2023-04-25T02:30:41.763Z,95982.97
2023-04-25T02:33:10.169Z,95981.22
2023-04-25T02:35:38.330Z,95985.41
2023-04-25T02:38:06.637Z,95988.59
2023-04-25T02:40:36.466Z,95984.69
2023-04-25T02:43:04.528Z,95993.34
2023-04-25T02:45:32.901Z,95990.19
2023-04-25T02:48:01.224Z,95990.25
2023-04-25T02:50:29.737Z,95982.97
2023-04-25T02:52:57.850Z,95985.97
2023-04-25T02:55:31.567Z,95978.75
2023-04-25T02:58:03.619Z,95975.09
2023-04-25T03:00:42.358Z,95978.41
2023-04-25T03:03:10.563Z,95979.44
2023-04-25T03:05:38.831Z,95981.31
2023-04-25T03:08:08.001Z,95972.53
2023-04-25T03:10:39.114Z,95978.78
2023-04-25T03:13:11.640Z,95974.44
2023-04-25T03:15:40.968Z,95979.28
2023-04-25T03:18:09.390Z,95972.69
2023-04-25T03:20:37.704Z,95979.06
2023-04-25T03:23:05.850Z,95975.66
2023-04-25T03:25:33.912Z,95981.22
2023-04-25T03:28:02.512Z,95976.75
2023-04-25T03:30:32.416Z,95974.34
2023-04-25T03:33:00.640Z,95971.06
2023-04-25T03:35:28.968Z,95973.97
2023-04-25T03:37:57.133Z,95976.00
2023-04-25T03:40:30.613Z,95971.88
2023-04-25T03:43:13.532Z,95969.81
2023-04-25T03:45:49.496Z,95970.97
2023-04-25T03:48:22.534Z,95973.88
2023-04-25T03:50:51.514Z,95972.84
2023-04-25T03:53:19.961Z,95980.47
2023-04-25T03:56:11.083Z,95974.63
2023-04-25T03:58:41.349Z,95979.66
2023-04-25T04:01:11.404Z,95980.44
2023-04-25T04:03:41.832Z,95979.28
2023-04-25T04:06:11.807Z,95979.59
2023-04-25T04:08:46.224Z,95985.66
2023-04-25T04:11:14.363Z,95989.34
2023-04-25T04:13:42.896Z,95982.78
2023-04-25T04:16:12.616Z,95978.31
2023-04-25T04:18:41.239Z,95980.56
2023-04-25T04:21:09.331Z,95984.72
2023-04-25T04:23:40.838Z,95979.25
2023-04-25T04:26:12.434Z,95983.66
2023-04-25T04:29:01.343Z,95986.25
2023-04-25T04:32:02.130Z,95983.31
2023-04-25T04:34:32.096Z,95981.63
2023-04-25T04:37:01.431Z,95981.97
2023-04-25T04:39:29.912Z,95988.66
2023-04-25T04:42:20.693Z,95986.09
2023-04-25T04:44:57.269Z,95982.34
2023-04-25T04:47:31.896Z,95978.09
2023-04-25T04:50:20.338Z,95984.06
2023-04-25T04:53:11.743Z,95978.44
2023-04-25T04:55:47.359Z,95986.16
2023-04-25T04:58:37.628Z,95978.38
2023-04-25T05:01:22.185Z,95975.50
2023-04-25T05:04:08.247Z,95978.75
2023-04-25T05:07:02.747Z,95979.16
2023-04-25T05:09:34.077Z,95982.38
2023-04-25T05:12:21.113Z,95977.16
2023-04-25T05:14:58.895Z,95978.19
2023-04-25T05:17:54.663Z,95971.56
2023-04-25T05:20:35.181Z,95974.47
2023-04-25T05:23:22.047Z,95974.53
2023-04-25T05:26:02.874Z,95967.06
2023-04-25T05:28:39.735Z,95975.25
2023-04-25T05:31:26.789Z,95965.78
2023-04-25T05:34:05.052Z,95977.66
2023-04-25T05:36:49.434Z,95971.72
2023-04-25T05:39:18.231Z,95971.31
2023-04-25T05:42:09.417Z,95973.88
2023-04-25T05:44:46.918Z,95972.00
2023-04-25T05:47:41.566Z,95977.63
2023-04-25T05:50:23.821Z,95979.13
2023-04-25T05:53:07.153Z,95982.28
2023-04-25T05:55:41.765Z,95981.47
2023-04-25T05:58:27.255Z,95979.84
2023-04-25T06:00:56.486Z,95985.88
2023-04-25T06:03:25.419Z,95975.09
2023-04-25T06:05:54.059Z,95974.31
2023-04-25T06:08:23.600Z,95974.97
2023-04-25T06:10:52.116Z,95981.66
2023-04-25T06:13:21.038Z,95977.44
2023-04-25T06:15:50.354Z,95980.34
2023-04-25T06:18:19.649Z,95980.84
2023-04-25T06:20:48.087Z,95989.44
2023-04-25T06:23:16.491Z,95983.03
2023-04-25T06:25:53.748Z,95979.47
2023-04-25T06:28:23.160Z,95978.78
2023-04-25T06:30:51.474Z,95979.31
2023-04-25T06:33:22.685Z,95977.38
2023-04-25T06:35:51.586Z,95977.78
2023-04-25T06:38:24.704Z,95978.00
2023-04-25T06:40:55.650Z,95978.72
2023-04-25T06:43:23.799Z,95972.09
2023-04-25T06:46:13.274Z,95974.19
2023-04-25T06:48:45.938Z,95978.44
2023-04-25T06:51:14.722Z,95976.50
2023-04-25T06:53:44.299Z,95971.31
2023-04-25T06:56:22.491Z,95971.41
2023-04-25T06:59:08.341Z,95969.38
2023-04-25T07:01:41.756Z,95971.53
2023-04-25T07:04:28.447Z,95967.84
2023-04-25T07:06:58.693Z,95972.78
2023-04-25T07:09:52.407Z,95966.41
2023-04-25T07:12:23.479Z,95976.19
2023-04-25T07:14:51.652Z,95979.50
2023-04-25T07:17:19.988Z,95975.72
2023-04-25T07:19:48.469Z,95981.19
2023-04-25T07:22:16.619Z,95983.09
2023-04-25T07:24:48.523Z,95982.13
2023-04-25T07:27:18.399Z,95980.06
2023-04-25T07:29:59.289Z,95978.94
2023-04-25T07:32:27.971Z,95980.03
2023-04-25T07:34:56.435Z,95976.22
2023-04-25T07:37:24.690Z,95983.28
2023-04-25T07:40:16.812Z,95972.84
2023-04-25T07:42:49.312Z,95968.75
2023-04-25T07:45:23.077Z,95966.31
2023-04-25T07:47:51.555Z,95972.34
2023-04-25T07:50:19.960Z,95985.44
2023-04-25T07:52:48.957Z,95985.44
2023-04-25T07:55:24.523Z,95988.97
2023-04-25T07:58:22.455Z,95995.56
2023-04-25T08:00:56.407Z,96000.59
2023-04-25T08:03:41.694Z,95990.09
2023-04-25T08:06:17.372Z,95990.25
2023-04-25T08:09:00.941Z,95987.97
2023-04-25T08:11:36.409Z,95987.31
2023-04-25T08:14:04.779Z,96003.13
2023-04-25T08:16:34.495Z,95993.41
2023-04-25T08:19:03.195Z,95996.69
2023-04-25T08:21:32.498Z,95995.56
2023-04-25T08:24:03.798Z,96008.41
2023-04-25T08:26:35.920Z,96004.88
2023-04-25T08:29:04.464Z,96002.81
2023-04-25T08:31:34.193Z,95998.41
2023-04-25T08:34:04.815Z,96005.56
2023-04-25T08:36:59.087Z,95996.66
2023-04-25T08:39:43.257Z,96007.06
2023-04-25T08:42:25.962Z,96009.84
2023-04-25T08:44:55.814Z,96013.97
2023-04-25T08:47:31.212Z,96011.91
2023-04-25T08:50:03.759Z,96010.16
2023-04-25T08:52:37.887Z,96012.38
2023-04-25T08:55:09.545Z,96002.50
2023-04-25T08:57:39.094Z,96009.16
2023-04-25T09:00:10.044Z,96000.84
2023-04-25T09:02:44.703Z,96009.41
2023-04-25T09:05:15.577Z,95999.91
2023-04-25T09:07:44.862Z,96011.06
2023-04-25T09:10:13.628Z,96018.94
2023-04-25T09:12:41.842Z,96004.22
2023-04-25T09:15:19.677Z,96014.94
2023-04-25T09:18:08.801Z,96021.28
2023-04-25T09:21:00.793Z,96027.50
2023-04-25T09:23:40.629Z,96019.72
2023-04-25T09:26:10.837Z,96026.28
2023-04-25T09:28:39.680Z,96023.13
2023-04-25T09:31:08.601Z,96028.28
2023-04-25T09:33:46.490Z,96024.72
2023-04-25T09:36:15.312Z,96020.84
2023-04-25T09:39:16.268Z,96016.22
2023-04-25T09:41:49.825Z,96024.41
2023-04-25T09:44:25.671Z,96041.53
2023-04-25T09:46:55.698Z,96039.25
2023-04-25T09:49:29.581Z,96041.69
2023-04-25T09:52:21.971Z,96027.53
2023-04-25T09:54:59.609Z,96035.16
2023-04-25T09:57:34.235Z,96030.34
2023-04-25T10:00:10.767Z,96037.38
2023-04-25T10:02:49.536Z,96043.28
2023-04-25T10:05:53.492Z,96041.44
2023-04-25T10:08:22.589Z,96048.19
2023-04-25T10:10:52.013Z,96046.88
2023-04-25T10:13:22.005Z,96054.53
2023-04-25T10:15:51.095Z,96052.63
2023-04-25T10:18:20.986Z,96054.28
2023-04-25T10:20:53.323Z,96050.97
2023-04-25T10:23:23.029Z,96057.19
2023-04-25T10:25:52.539Z,96049.81
2023-04-25T10:28:21.036Z,96053.28
2023-04-25T10:31:02.080Z,96050.28
2023-04-25T10:33:37.568Z,96053.34
2023-04-25T10:36:13.454Z,96055.91
2023-04-25T10:38:42.099Z,96056.00
2023-04-25T10:41:11.783Z,96051.84
2023-04-25T10:43:41.398Z,96043.59
2023-04-25T10:46:20.467Z,96050.81
2023-04-25T10:48:51.211Z,96053.25
2023-04-25T10:51:23.273Z,96050.81
2023-04-25T10:54:03.228Z,96050.19
2023-04-25T10:56:33.268Z,96043.75
2023-04-25T10:59:11.232Z,96051.09
2023-04-25T11:01:43.081Z,96052.44
2023-04-25T11:04:25.142Z,96049.50
2023-04-25T11:07:08.256Z,96060.06
2023-04-25T11:09:38.475Z,96063.22
2023-04-25T11:12:09.494Z,96063.13
2023-04-25T11:17:06.915Z,96075.28
2023-04-25T11:19:35.239Z,96074.16
2023-04-25T11:22:06.194Z,96074.25
2023-04-25T11:24:36.500Z,96080.59
2023-04-25T11:27:07.903Z,96078.34
2023-04-25T11:29:37.364Z,96086.09
2023-04-25T11:32:06.218Z,96093.16
2023-04-25T11:34:35.333Z,96094.75
2023-04-25T11:37:05.245Z,96098.63
2023-04-25T11:39:33.870Z,96105.97
2023-04-25T11:42:07.518Z,96106.88
2023-04-25T11:44:42.273Z,96106.31
2023-04-25T11:47:10.940Z,96103.94
2023-04-25T11:49:39.045Z,96101.66
2023-04-25T11:52:09.957Z,96097.03
2023-04-25T11:54:39.015Z,96106.03
2023-04-25T11:57:07.565Z,96108.72
2023-04-25T11:59:36.147Z,96110.19
2023-04-25T12:02:04.481Z,96106.78
2023-04-25T12:04:34.271Z,96116.47
2023-04-25T12:07:03.560Z,96110.59
2023-04-25T12:09:34.621Z,96111.38
2023-04-25T12:12:04.887Z,96123.06
2023-04-25T12:14:34.802Z,96119.16
2023-04-25T12:17:05.169Z,96117.91
2023-04-25T12:19:35.824Z,96121.03
2023-04-25T12:22:05.202Z,96121.25
2023-04-25T12:24:39.101Z,96121.66
2023-04-25T12:27:10.015Z,96120.69
2023-04-25T12:29:49.083Z,96127.09
2023-04-25T12:32:18.566Z,96129.34
2023-04-25T12:34:47.171Z,96146.56
2023-04-25T12:37:16.741Z,96133.81
2023-04-25T12:39:46.348Z,96139.50
2023-04-25T12:42:14.935Z,96147.84
2023-04-25T12:44:43.021Z,96149.00
2023-04-25T12:47:11.792Z,96157.28
2023-04-25T12:49:40.195Z,96158.81
2023-04-25T12:52:08.318Z,96154.94
2023-04-25T12:54:36.616Z,96161.38
2023-04-25T12:57:06.348Z,96163.97
2023-04-25T12:59:34.943Z,96164.09
2023-04-25T13:02:04.043Z,96171.09
2023-04-25T13:04:32.578Z,96171.84
2023-04-25T13:07:01.062Z,96175.13
2023-04-25T13:09:29.307Z,96169.69
2023-04-25T13:11:59.358Z,96181.16
2023-04-25T13:14:29.126Z,96175.69
2023-04-25T13:16:57.591Z,96180.63
2023-04-25T13:19:26.721Z,96182.81
2023-04-25T13:21:55.149Z,96192.38
2023-04-25T13:24:23.381Z,96188.03
2023-04-25T13:26:52.490Z,96184.50
2023-04-25T13:29:20.620Z,96191.19
2023-04-25T13:31:50.184Z,96183.19
2023-04-25T13:34:18.497Z,96191.56
2023-04-25T13:36:46.767Z,96185.91
2023-04-25T13:39:15.351Z,96202.38
2023-04-25T13:41:43.749Z,96202.38
2023-04-25T13:44:12.126Z,96204.81
2023-04-25T13:46:46.942Z,96199.38
2023-04-25T13:49:16.947Z,96198.34
2023-04-25T13:51:46.509Z,96204.84
2023-04-25T13:54:14.650Z,96201.53
2023-04-25T13:56:43.677Z,96215.50
2023-04-25T13:59:12.499Z,96205.25
2023-04-25T14:01:40.747Z,96216.75
2023-04-25T14:04:09.400Z,96210.50
2023-04-25T14:06:38.899Z,96211.59
2023-04-25T14:09:08.231Z,96220.03
2023-04-25T14:11:36.452Z,96225.16
2023-04-25T14:14:05.182Z,96235.38
2023-04-25T14:16:33.660Z,96230.06
2023-04-25T14:19:01.998Z,96224.75
2023-04-25T14:21:33.617Z,96223.66
2023-04-25T14:24:03.508Z,96228.69
2023-04-25T14:26:32.488Z,96236.75
2023-04-25T14:29:01.060Z,96240.84
2023-04-25T14:31:29.367Z,96242.19
2023-04-25T14:33:59.361Z,96243.03
2023-04-25T14:36:28.511Z,96233.31
2023-04-25T14:38:57.230Z,96240.59
2023-04-25T14:41:28.258Z,96235.69
2023-04-25T14:43:58.008Z,96236.72
2023-04-25T14:46:26.795Z,96236.16
2023-04-25T14:48:57.075Z,96238.22
2023-04-25T14:51:25.737Z,96239.63
2023-04-25T14:53:54.427Z,96237.03
2023-04-25T14:56:22.804Z,96241.00
2023-04-25T14:58:52.501Z,96249.75
2023-04-25T15:01:23.129Z,96248.25
2023-04-25T16:17:42.354Z,96282.28
2023-04-25T16:24:48.006Z,96284.03
2023-04-25T16:27:18.392Z,96289.25
2023-04-25T16:29:46.626Z,96290.66
2023-04-25T16:32:15.010Z,96299.94
2023-04-25T16:34:44.478Z,96298.53
2023-04-25T16:37:12.834Z,96295.38
2023-04-25T16:39:40.981Z,96295.78
2023-04-25T16:42:09.092Z,96297.59
2023-04-25T16:44:37.425Z,96289.50
2023-04-25T16:47:06.343Z,96304.09
2023-04-25T16:49:34.687Z,96306.13
2023-04-25T16:52:04.426Z,96304.44
2023-04-25T16:54:32.584Z,96315.50
2023-04-25T16:57:01.392Z,96311.72
2023-04-25T16:59:29.465Z,96314.00
2023-04-25T17:01:58.381Z,96313.75
2023-04-25T17:04:26.955Z,96313.75
2023-04-25T17:06:55.215Z,96325.00
2023-04-25T17:09:24.826Z,96323.88
2023-04-25T17:11:53.122Z,96328.34
2023-04-25T17:14:21.414Z,96328.03
2023-04-25T17:16:49.817Z,96325.00
2023-04-25T17:19:18.283Z,96329.28
2023-04-25T17:21:46.665Z,96334.75
2023-04-25T17:24:16.079Z,96332.16
2023-04-25T17:26:47.542Z,96338.41
2023-04-25T17:29:17.358Z,96343.69
2023-04-25T17:31:45.845Z,96350.75
2023-04-25T17:34:17.940Z,96350.19
2023-04-25T17:36:46.588Z,96352.22
2023-04-25T17:39:17.390Z,96360.94
2023-04-25T17:41:47.317Z,96358.59
2023-04-25T17:44:15.483Z,96359.66
2023-04-25T17:46:43.875Z,96364.13
2023-04-25T17:49:12.457Z,96362.75
2023-04-25T17:51:40.650Z,96373.94
2023-04-25T17:54:09.489Z,96372.63
2023-04-25T17:56:38.965Z,96366.75
2023-04-25T17:59:08.533Z,96379.69
2023-04-25T18:01:36.951Z,96381.13
2023-04-25T18:04:05.859Z,96377.03
2023-04-25T18:06:34.305Z,96380.66
2023-04-25T18:09:03.528Z,96381.63
2023-04-25T18:11:32.063Z,96380.09
2023-04-25T18:14:00.942Z,96383.38
2023-04-25T18:16:31.453Z,96390.56
2023-04-25T18:19:05.427Z,96390.69
2023-04-25T18:21:34.379Z,96397.63
2023-04-25T18:24:02.701Z,96399.63
2023-04-25T18:26:31.619Z,96407.63
2023-04-25T18:29:00.100Z,96412.34
2023-04-25T18:31:29.933Z,96421.41
2023-04-25T18:33:59.637Z,96422.59
2023-04-25T18:36:29.030Z,96424.13
2023-04-25T18:38:59.503Z,96426.22
2023-04-25T18:41:52.114Z,96429.06
2023-04-25T18:44:18.545Z,96434.34
2023-04-25T18:46:47.328Z,96439.41
2023-04-25T18:49:16.811Z,96443.38
2023-04-25T18:51:45.462Z,96438.44
2023-04-25T18:54:13.957Z,96448.38
2023-04-25T18:56:41.942Z,96450.44
2023-04-25T18:59:11.181Z,96453.81
2023-04-25T19:01:39.530Z,96461.22
2023-04-25T19:04:07.758Z,96462.22
2023-04-25T19:06:37.243Z,96464.53
2023-04-25T19:09:05.754Z,96454.97
2023-04-25T19:11:34.535Z,96464.50
2023-04-25T19:14:02.884Z,96462.84
2023-04-25T19:16:37.602Z,96463.69
2023-04-25T19:19:07.225Z,96470.41
2023-04-25T19:21:37.274Z,96463.22
2023-04-25T19:24:07.110Z,96466.41
2023-04-25T19:26:35.662Z,96470.75
2023-04-25T19:29:06.080Z,96458.00
2023-04-25T19:31:34.952Z,96466.44
2023-04-25T19:34:04.858Z,96470.47
2023-04-25T19:36:33.279Z,96469.56
2023-04-25T19:39:04.470Z,96477.56
2023-04-25T19:41:33.674Z,96476.31
2023-04-25T19:44:02.138Z,96480.88
2023-04-25T19:46:31.150Z,96480.25
2023-04-25T19:48:59.352Z,96479.84
2023-04-25T19:51:28.306Z,96476.31
2023-04-25T19:53:56.986Z,96479.94
2023-04-25T19:56:27.311Z,96478.69
2023-04-25T19:58:56.287Z,96483.09
2023-04-25T20:01:24.542Z,96483.84
2023-04-25T20:03:52.852Z,96484.28
2023-04-25T20:06:21.683Z,96485.94
2023-04-25T20:08:50.586Z,96488.78
2023-04-25T20:11:19.065Z,96492.84
2023-04-25T20:13:48.774Z,96488.72
2023-04-25T20:16:19.999Z,96486.75
2023-04-25T20:18:48.707Z,96489.25
2023-04-25T20:21:17.908Z,96498.72
2023-04-25T20:23:46.951Z,96495.59
2023-04-25T20:26:15.150Z,96496.09
2023-04-25T20:28:43.828Z,96506.44
2023-04-25T20:31:13.334Z,96507.63
2023-04-25T20:33:43.748Z,96510.22
2023-04-25T20:36:12.071Z,96506.47
2023-04-25T20:38:40.130Z,96513.81
2023-04-25T20:41:08.433Z,96509.19
2023-04-25T20:43:38.234Z,96511.94
2023-04-25T20:46:06.707Z,96509.44
2023-04-25T20:48:36.759Z,96519.00
2023-04-25T20:51:07.253Z,96520.56
2023-04-25T20:53:35.886Z,96514.69
2023-04-25T20:56:04.544Z,96523.91
2023-04-25T20:58:33.344Z,96517.66
2023-04-25T21:01:02.132Z,96519.72
2023-04-25T21:03:30.747Z,96520.34
2023-04-25T21:06:00.423Z,96523.56
2023-04-25T21:08:28.708Z,96528.50
2023-04-25T21:10:56.838Z,96524.47
2023-04-25T21:13:27.306Z,96523.84
2023-04-25T21:15:55.608Z,96521.63
2023-04-25T21:18:24.053Z,96520.91
2023-04-25T21:20:52.433Z,96524.06
2023-04-25T21:23:22.380Z,96519.41
2023-04-25T21:25:51.697Z,96529.59
2023-04-25T21:28:19.911Z,96527.03
2023-04-25T21:30:48.575Z,96522.72
2023-04-25T21:33:16.764Z,96532.91
2023-04-25T21:35:45.117Z,96534.06
2023-04-25T21:38:14.700Z,96528.56
2023-04-25T21:40:44.343Z,96527.00
2023-04-25T21:43:12.440Z,96528.72
2023-04-25T21:46:05.696Z,96528.34
2023-04-25T21:48:29.089Z,96535.47
2023-04-25T21:50:57.262Z,96531.59
2023-04-25T21:53:26.812Z,96531.34
2023-04-25T21:55:56.271Z,96532.34
2023-04-25T21:58:24.832Z,96517.00
2023-04-25T22:00:53.191Z,96526.47
2023-04-25T22:03:21.528Z,96530.88
2023-04-25T22:05:49.715Z,96527.94
2023-04-25T22:08:17.840Z,96531.78
2023-04-25T22:10:46.426Z,96533.53
2023-04-25T22:13:16.432Z,96539.66
2023-04-25T22:15:44.905Z,96536.09
2023-04-25T22:18:14.426Z,96541.97
2023-04-25T22:20:44.296Z,96544.88
2023-04-25T22:23:13.067Z,96546.53
2023-04-25T22:25:42.174Z,96553.53
2023-04-25T22:28:10.839Z,96557.56
2023-04-25T22:30:40.183Z,96551.06
2023-04-25T22:33:08.281Z,96557.47
2023-04-25T22:35:36.307Z,96563.25
2023-04-25T22:38:04.715Z,96557.94
2023-04-25T22:40:32.899Z,96567.41
2023-04-25T22:43:00.950Z,96566.72
2023-04-25T22:45:29.364Z,96561.69
2023-04-25T22:47:58.967Z,96570.59
2023-04-25T22:50:27.819Z,96567.31
2023-04-25T22:52:56.121Z,96575.03
2023-04-25T22:55:24.333Z,96570.22
2023-04-25T22:57:52.839Z,96583.19
2023-04-25T23:00:21.854Z,96582.44
2023-04-25T23:02:50.745Z,96583.28
2023-04-25T23:05:21.406Z,96584.00
2023-04-25T23:07:49.545Z,96589.97
2023-04-25T23:10:18.803Z,96583.75
2023-04-25T23:12:46.969Z,96586.50
2023-04-25T23:15:15.278Z,96586.13
2023-04-25T23:17:43.587Z,96586.84
2023-04-25T23:20:13.411Z,96591.81
2023-04-25T23:22:42.874Z,96590.97
2023-04-25T23:25:11.963Z,96593.34
2023-04-25T23:27:40.079Z,96593.44
2023-04-25T23:30:10.151Z,96595.44
2023-04-25T23:32:38.644Z,96589.28
2023-04-25T23:35:07.772Z,96597.00
2023-04-25T23:37:37.360Z,96594.78
2023-04-25T23:40:10.063Z,96596.69
2023-04-25T23:42:39.442Z,96598.03
2023-04-25T23:45:09.578Z,96603.00
2023-04-25T23:47:38.313Z,96606.31
2023-04-25T23:50:08.068Z,96602.53
2023-04-25T23:52:36.259Z,96605.03
2023-04-25T23:55:05.536Z,96609.94
2023-04-25T23:57:35.017Z,96603.16
